sensor_id;sensor_type;location;lat;lon;timestamp;temperature;humidity
49373;DHT22;44113;38.408;-122.974;2022-08-19T00:13:54;25.80;52.70
49373;DHT22;44113;38.408;-122.974;2022-08-19T00:16:22;25.60;53.60
49373;DHT22;44113;38.408;-122.974;2022-08-19T00:18:50;25.60;53.20
49373;DHT22;44113;38.408;-122.974;2022-08-19T00:21:17;25.50;53.20
49373;DHT22;44113;38.408;-122.974;2022-08-19T00:23:44;25.50;53.30
49373;DHT22;44113;38.408;-122.974;2022-08-19T00:26:11;25.50;53.40
49373;DHT22;44113;38.408;-122.974;2022-08-19T00:28:38;25.40;53.20
49373;DHT22;44113;38.408;-122.974;2022-08-19T00:31:06;25.40;53.00
49373;DHT22;44113;38.408;-122.974;2022-08-19T00:33:34;25.30;53.30
49373;DHT22;44113;38.408;-122.974;2022-08-19T00:36:03;25.40;53.30
49373;DHT22;44113;38.408;-122.974;2022-08-19T00:38:30;25.40;53.20
49373;DHT22;44113;38.408;-122.974;2022-08-19T00:40:57;25.40;53.30
49373;DHT22;44113;38.408;-122.974;2022-08-19T00:43:27;25.40;53.20
49373;DHT22;44113;38.408;-122.974;2022-08-19T00:45:55;25.40;53.00
49373;DHT22;44113;38.408;-122.974;2022-08-19T00:48:22;25.30;52.90
49373;DHT22;44113;38.408;-122.974;2022-08-19T00:50:51;25.30;53.10
49373;DHT22;44113;38.408;-122.974;2022-08-19T00:53:21;25.40;53.20
49373;DHT22;44113;38.408;-122.974;2022-08-19T00:55:51;25.40;53.20
49373;DHT22;44113;38.408;-122.974;2022-08-19T00:58:20;25.40;53.10
49373;DHT22;44113;38.408;-122.974;2022-08-19T01:00:49;25.40;53.10
49373;DHT22;44113;38.408;-122.974;2022-08-19T01:03:19;25.40;52.70
49373;DHT22;44113;38.408;-122.974;2022-08-19T01:05:48;25.40;52.70
49373;DHT22;44113;38.408;-122.974;2022-08-19T01:08:17;25.40;52.70
49373;DHT22;44113;38.408;-122.974;2022-08-19T01:10:47;25.40;52.60
49373;DHT22;44113;38.408;-122.974;2022-08-19T01:13:17;25.40;52.50
49373;DHT22;44113;38.408;-122.974;2022-08-19T01:15:57;25.40;52.60
49373;DHT22;44113;38.408;-122.974;2022-08-19T01:18:26;25.40;52.50
49373;DHT22;44113;38.408;-122.974;2022-08-19T01:21:00;25.40;52.50
49373;DHT22;44113;38.408;-122.974;2022-08-19T01:23:28;25.40;52.60
49373;DHT22;44113;38.408;-122.974;2022-08-19T01:26:14;25.40;52.80
49373;DHT22;44113;38.408;-122.974;2022-08-19T01:28:42;25.40;53.10
49373;DHT22;44113;38.408;-122.974;2022-08-19T01:31:18;25.40;53.50
49373;DHT22;44113;38.408;-122.974;2022-08-19T01:33:45;25.40;53.60
49373;DHT22;44113;38.408;-122.974;2022-08-19T01:36:27;25.30;53.70
49373;DHT22;44113;38.408;-122.974;2022-08-19T01:38:54;25.30;53.70
49373;DHT22;44113;38.408;-122.974;2022-08-19T01:41:22;25.30;53.60
49373;DHT22;44113;38.408;-122.974;2022-08-19T01:43:50;25.30;53.50
49373;DHT22;44113;38.408;-122.974;2022-08-19T01:46:17;25.30;53.50
49373;DHT22;44113;38.408;-122.974;2022-08-19T01:48:45;25.30;53.50
49373;DHT22;44113;38.408;-122.974;2022-08-19T01:51:12;25.40;53.50
49373;DHT22;44113;38.408;-122.974;2022-08-19T01:53:40;25.30;53.70
49373;DHT22;44113;38.408;-122.974;2022-08-19T01:56:07;25.20;54.00
49373;DHT22;44113;38.408;-122.974;2022-08-19T01:58:43;25.10;54.20
49373;DHT22;44113;38.408;-122.974;2022-08-19T02:01:15;25.00;54.40
49373;DHT22;44113;38.408;-122.974;2022-08-19T02:03:43;24.90;54.90
49373;DHT22;44113;38.408;-122.974;2022-08-19T02:06:09;24.70;55.30
49373;DHT22;44113;38.408;-122.974;2022-08-19T02:08:38;24.60;55.50
49373;DHT22;44113;38.408;-122.974;2022-08-19T02:11:06;24.50;55.80
49373;DHT22;44113;38.408;-122.974;2022-08-19T02:13:33;24.40;56.00
49373;DHT22;44113;38.408;-122.974;2022-08-19T02:16:01;24.20;56.40
49373;DHT22;44113;38.408;-122.974;2022-08-19T02:18:27;24.10;56.60
49373;DHT22;44113;38.408;-122.974;2022-08-19T02:20:54;24.00;56.60
49373;DHT22;44113;38.408;-122.974;2022-08-19T02:23:21;23.90;57.50
49373;DHT22;44113;38.408;-122.974;2022-08-19T02:25:48;23.80;57.10
49373;DHT22;44113;38.408;-122.974;2022-08-19T02:28:15;23.80;57.30
49373;DHT22;44113;38.408;-122.974;2022-08-19T02:30:42;23.70;57.50
49373;DHT22;44113;38.408;-122.974;2022-08-19T02:33:09;23.60;57.60
49373;DHT22;44113;38.408;-122.974;2022-08-19T02:35:36;23.60;57.60
49373;DHT22;44113;38.408;-122.974;2022-08-19T02:38:03;23.50;57.80
49373;DHT22;44113;38.408;-122.974;2022-08-19T02:40:51;23.40;58.10
49373;DHT22;44113;38.408;-122.974;2022-08-19T02:43:18;23.40;58.50
49373;DHT22;44113;38.408;-122.974;2022-08-19T02:45:48;23.30;58.70
49373;DHT22;44113;38.408;-122.974;2022-08-19T02:48:18;23.30;58.70
49373;DHT22;44113;38.408;-122.974;2022-08-19T02:50:45;23.20;58.30
49373;DHT22;44113;38.408;-122.974;2022-08-19T02:53:13;23.10;57.90
49373;DHT22;44113;38.408;-122.974;2022-08-19T02:55:45;23.10;57.80
49373;DHT22;44113;38.408;-122.974;2022-08-19T02:58:13;23.10;57.70
49373;DHT22;44113;38.408;-122.974;2022-08-19T03:00:47;23.10;57.70
49373;DHT22;44113;38.408;-122.974;2022-08-19T03:03:15;23.10;58.00
49373;DHT22;44113;38.408;-122.974;2022-08-19T03:05:43;23.10;57.90
49373;DHT22;44113;38.408;-122.974;2022-08-19T03:08:10;23.10;57.60
49373;DHT22;44113;38.408;-122.974;2022-08-19T03:10:47;23.10;57.20
49373;DHT22;44113;38.408;-122.974;2022-08-19T03:13:16;23.00;56.80
49373;DHT22;44113;38.408;-122.974;2022-08-19T03:15:45;23.10;56.50
49373;DHT22;44113;38.408;-122.974;2022-08-19T03:18:14;23.20;55.60
49373;DHT22;44113;38.408;-122.974;2022-08-19T03:20:43;23.30;55.40
49373;DHT22;44113;38.408;-122.974;2022-08-19T03:23:11;23.40;55.00
49373;DHT22;44113;38.408;-122.974;2022-08-19T03:25:44;23.50;55.00
49373;DHT22;44113;38.408;-122.974;2022-08-19T03:28:12;23.60;54.90
49373;DHT22;44113;38.408;-122.974;2022-08-19T03:30:42;23.70;54.70
49373;DHT22;44113;38.408;-122.974;2022-08-19T03:33:10;23.80;54.40
49373;DHT22;44113;38.408;-122.974;2022-08-19T03:35:40;23.90;54.60
49373;DHT22;44113;38.408;-122.974;2022-08-19T03:38:06;23.90;54.90
49373;DHT22;44113;38.408;-122.974;2022-08-19T03:40:37;23.90;54.60
49373;DHT22;44113;38.408;-122.974;2022-08-19T03:43:03;23.90;54.60
49373;DHT22;44113;38.408;-122.974;2022-08-19T03:45:31;23.90;54.80
49373;DHT22;44113;38.408;-122.974;2022-08-19T03:47:59;23.90;55.10
49373;DHT22;44113;38.408;-122.974;2022-08-19T03:50:26;23.80;55.00
49373;DHT22;44113;38.408;-122.974;2022-08-19T03:52:53;23.80;55.10
49373;DHT22;44113;38.408;-122.974;2022-08-19T03:55:20;23.80;55.20
49373;DHT22;44113;38.408;-122.974;2022-08-19T03:57:46;23.80;55.30
49373;DHT22;44113;38.408;-122.974;2022-08-19T04:00:14;23.80;55.40
49373;DHT22;44113;38.408;-122.974;2022-08-19T04:02:42;23.80;55.60
49373;DHT22;44113;38.408;-122.974;2022-08-19T04:05:09;23.90;55.80
49373;DHT22;44113;38.408;-122.974;2022-08-19T04:07:36;23.80;55.90
49373;DHT22;44113;38.408;-122.974;2022-08-19T04:10:03;23.80;55.90
49373;DHT22;44113;38.408;-122.974;2022-08-19T04:12:30;23.80;56.00
49373;DHT22;44113;38.408;-122.974;2022-08-19T04:14:56;23.80;56.00
49373;DHT22;44113;38.408;-122.974;2022-08-19T04:17:23;23.80;56.00
49373;DHT22;44113;38.408;-122.974;2022-08-19T04:19:49;23.80;56.00
49373;DHT22;44113;38.408;-122.974;2022-08-19T04:22:16;23.80;56.00
49373;DHT22;44113;38.408;-122.974;2022-08-19T04:24:42;23.80;56.10
49373;DHT22;44113;38.408;-122.974;2022-08-19T04:27:08;23.70;56.00
49373;DHT22;44113;38.408;-122.974;2022-08-19T04:29:35;23.70;54.90
49373;DHT22;44113;38.408;-122.974;2022-08-19T04:32:03;23.70;54.40
49373;DHT22;44113;38.408;-122.974;2022-08-19T04:34:31;23.60;54.40
49373;DHT22;44113;38.408;-122.974;2022-08-19T04:36:58;23.70;54.20
49373;DHT22;44113;38.408;-122.974;2022-08-19T04:39:27;23.70;54.30
49373;DHT22;44113;38.408;-122.974;2022-08-19T04:42:13;23.80;54.20
49373;DHT22;44113;38.408;-122.974;2022-08-19T04:44:58;23.80;53.90
49373;DHT22;44113;38.408;-122.974;2022-08-19T04:47:25;23.80;53.70
49373;DHT22;44113;38.408;-122.974;2022-08-19T04:49:52;23.80;53.70
49373;DHT22;44113;38.408;-122.974;2022-08-19T04:52:18;23.70;53.50
49373;DHT22;44113;38.408;-122.974;2022-08-19T04:54:45;23.60;53.00
49373;DHT22;44113;38.408;-122.974;2022-08-19T04:57:11;23.70;52.50
49373;DHT22;44113;38.408;-122.974;2022-08-19T04:59:38;23.70;52.00
49373;DHT22;44113;38.408;-122.974;2022-08-19T05:02:07;23.70;52.10
49373;DHT22;44113;38.408;-122.974;2022-08-19T05:04:34;23.70;52.10
49373;DHT22;44113;38.408;-122.974;2022-08-19T05:07:01;23.70;52.40
49373;DHT22;44113;38.408;-122.974;2022-08-19T05:09:29;23.70;52.70
49373;DHT22;44113;38.408;-122.974;2022-08-19T05:11:56;23.80;52.80
49373;DHT22;44113;38.408;-122.974;2022-08-19T05:14:23;23.80;53.10
49373;DHT22;44113;38.408;-122.974;2022-08-19T05:16:50;23.70;53.70
49373;DHT22;44113;38.408;-122.974;2022-08-19T05:19:16;23.70;54.80
49373;DHT22;44113;38.408;-122.974;2022-08-19T05:22:01;23.60;55.60
49373;DHT22;44113;38.408;-122.974;2022-08-19T05:24:46;23.60;56.10
49373;DHT22;44113;38.408;-122.974;2022-08-19T05:27:13;23.60;56.00
49373;DHT22;44113;38.408;-122.974;2022-08-19T05:29:39;23.60;55.90
49373;DHT22;44113;38.408;-122.974;2022-08-19T05:32:07;23.60;55.80
49373;DHT22;44113;38.408;-122.974;2022-08-19T05:34:34;23.60;55.60
49373;DHT22;44113;38.408;-122.974;2022-08-19T05:37:02;23.60;55.80
49373;DHT22;44113;38.408;-122.974;2022-08-19T05:39:33;23.60;56.00
49373;DHT22;44113;38.408;-122.974;2022-08-19T05:42:02;23.60;55.90
49373;DHT22;44113;38.408;-122.974;2022-08-19T05:44:31;23.70;55.90
49373;DHT22;44113;38.408;-122.974;2022-08-19T05:47:00;23.70;56.10
49373;DHT22;44113;38.408;-122.974;2022-08-19T05:49:28;23.70;56.20
49373;DHT22;44113;38.408;-122.974;2022-08-19T05:51:55;23.80;56.20
49373;DHT22;44113;38.408;-122.974;2022-08-19T05:54:22;23.80;56.20
49373;DHT22;44113;38.408;-122.974;2022-08-19T05:56:50;23.80;56.20
49373;DHT22;44113;38.408;-122.974;2022-08-19T05:59:17;23.70;56.00
49373;DHT22;44113;38.408;-122.974;2022-08-19T06:01:47;23.80;55.80
49373;DHT22;44113;38.408;-122.974;2022-08-19T06:04:18;23.70;55.40
49373;DHT22;44113;38.408;-122.974;2022-08-19T06:06:50;23.80;55.10
49373;DHT22;44113;38.408;-122.974;2022-08-19T06:09:18;23.70;54.90
49373;DHT22;44113;38.408;-122.974;2022-08-19T06:11:51;23.80;54.80
49373;DHT22;44113;38.408;-122.974;2022-08-19T06:14:23;23.70;54.40
49373;DHT22;44113;38.408;-122.974;2022-08-19T06:16:51;23.70;54.40
49373;DHT22;44113;38.408;-122.974;2022-08-19T06:19:20;23.70;54.20
49373;DHT22;44113;38.408;-122.974;2022-08-19T06:21:48;23.60;53.90
49373;DHT22;44113;38.408;-122.974;2022-08-19T06:24:22;23.60;53.70
49373;DHT22;44113;38.408;-122.974;2022-08-19T06:26:53;23.70;53.50
49373;DHT22;44113;38.408;-122.974;2022-08-19T06:29:22;23.60;53.40
49373;DHT22;44113;38.408;-122.974;2022-08-19T06:31:52;23.70;53.30
49373;DHT22;44113;38.408;-122.974;2022-08-19T06:34:20;23.70;53.20
49373;DHT22;44113;38.408;-122.974;2022-08-19T06:36:48;23.70;53.20
49373;DHT22;44113;38.408;-122.974;2022-08-19T06:39:29;23.70;53.20
49373;DHT22;44113;38.408;-122.974;2022-08-19T06:41:58;23.70;53.10
49373;DHT22;44113;38.408;-122.974;2022-08-19T06:44:28;23.60;53.00
49373;DHT22;44113;38.408;-122.974;2022-08-19T06:46:55;23.70;53.00
49373;DHT22;44113;38.408;-122.974;2022-08-19T06:49:22;23.60;52.90
49373;DHT22;44113;38.408;-122.974;2022-08-19T06:51:50;23.60;53.10
49373;DHT22;44113;38.408;-122.974;2022-08-19T06:54:17;23.60;53.10
49373;DHT22;44113;38.408;-122.974;2022-08-19T06:56:44;23.60;53.50
49373;DHT22;44113;38.408;-122.974;2022-08-19T06:59:14;23.50;53.70
49373;DHT22;44113;38.408;-122.974;2022-08-19T07:01:45;23.50;54.20
49373;DHT22;44113;38.408;-122.974;2022-08-19T07:04:14;23.50;54.30
49373;DHT22;44113;38.408;-122.974;2022-08-19T07:06:43;23.50;54.40
49373;DHT22;44113;38.408;-122.974;2022-08-19T07:09:13;23.60;54.60
49373;DHT22;44113;38.408;-122.974;2022-08-19T07:11:45;23.50;54.70
49373;DHT22;44113;38.408;-122.974;2022-08-19T07:14:13;23.50;55.20
49373;DHT22;44113;38.408;-122.974;2022-08-19T07:16:42;23.50;55.90
49373;DHT22;44113;38.408;-122.974;2022-08-19T07:19:12;23.50;56.50
49373;DHT22;44113;38.408;-122.974;2022-08-19T07:21:39;23.50;56.20
49373;DHT22;44113;38.408;-122.974;2022-08-19T07:24:05;23.60;56.20
49373;DHT22;44113;38.408;-122.974;2022-08-19T07:26:37;23.60;56.10
49373;DHT22;44113;38.408;-122.974;2022-08-19T07:29:05;23.60;55.90
49373;DHT22;44113;38.408;-122.974;2022-08-19T07:31:32;23.50;55.70
49373;DHT22;44113;38.408;-122.974;2022-08-19T07:34:05;23.50;55.60
49373;DHT22;44113;38.408;-122.974;2022-08-19T07:36:34;23.50;55.60
49373;DHT22;44113;38.408;-122.974;2022-08-19T07:39:05;23.50;55.70
49373;DHT22;44113;38.408;-122.974;2022-08-19T07:41:35;23.50;55.70
49373;DHT22;44113;38.408;-122.974;2022-08-19T07:44:04;23.50;55.80
49373;DHT22;44113;38.408;-122.974;2022-08-19T07:46:38;23.40;55.80
49373;DHT22;44113;38.408;-122.974;2022-08-19T07:49:06;23.50;55.80
49373;DHT22;44113;38.408;-122.974;2022-08-19T07:51:34;23.50;55.70
49373;DHT22;44113;38.408;-122.974;2022-08-19T07:54:01;23.40;55.80
49373;DHT22;44113;38.408;-122.974;2022-08-19T07:56:28;23.50;55.90
49373;DHT22;44113;38.408;-122.974;2022-08-19T07:58:55;23.50;55.80
49373;DHT22;44113;38.408;-122.974;2022-08-19T08:01:25;23.40;55.70
49373;DHT22;44113;38.408;-122.974;2022-08-19T08:03:55;23.40;55.70
49373;DHT22;44113;38.408;-122.974;2022-08-19T08:06:42;23.40;55.80
49373;DHT22;44113;38.408;-122.974;2022-08-19T08:09:33;23.40;55.90
49373;DHT22;44113;38.408;-122.974;2022-08-19T08:12:08;23.40;55.80
49373;DHT22;44113;38.408;-122.974;2022-08-19T08:14:51;23.40;55.90
49373;DHT22;44113;38.408;-122.974;2022-08-19T08:17:20;23.30;56.10
49373;DHT22;44113;38.408;-122.974;2022-08-19T08:19:47;23.40;56.10
49373;DHT22;44113;38.408;-122.974;2022-08-19T08:22:18;23.30;56.10
49373;DHT22;44113;38.408;-122.974;2022-08-19T08:25:16;23.40;56.20
49373;DHT22;44113;38.408;-122.974;2022-08-19T08:27:45;23.40;56.20
49373;DHT22;44113;38.408;-122.974;2022-08-19T08:30:18;23.40;56.20
49373;DHT22;44113;38.408;-122.974;2022-08-19T08:32:45;23.30;56.10
49373;DHT22;44113;38.408;-122.974;2022-08-19T08:35:14;23.40;56.20
49373;DHT22;44113;38.408;-122.974;2022-08-19T08:37:46;23.40;56.20
49373;DHT22;44113;38.408;-122.974;2022-08-19T08:40:20;23.40;56.30
49373;DHT22;44113;38.408;-122.974;2022-08-19T08:43:07;23.30;56.20
49373;DHT22;44113;38.408;-122.974;2022-08-19T08:45:41;23.30;56.90
49373;DHT22;44113;38.408;-122.974;2022-08-19T08:50:59;23.30;56.50
49373;DHT22;44113;38.408;-122.974;2022-08-19T08:53:28;23.30;56.50
49373;DHT22;44113;38.408;-122.974;2022-08-19T08:55:54;23.30;56.50
49373;DHT22;44113;38.408;-122.974;2022-08-19T08:58:36;23.30;56.50
49373;DHT22;44113;38.408;-122.974;2022-08-19T09:01:10;23.30;56.50
49373;DHT22;44113;38.408;-122.974;2022-08-19T09:03:39;23.30;56.40
49373;DHT22;44113;38.408;-122.974;2022-08-19T09:09:05;23.30;56.60
49373;DHT22;44113;38.408;-122.974;2022-08-19T09:14:34;23.20;56.70
49373;DHT22;44113;38.408;-122.974;2022-08-19T09:17:03;23.20;56.90
49373;DHT22;44113;38.408;-122.974;2022-08-19T09:19:35;23.20;56.70
49373;DHT22;44113;38.408;-122.974;2022-08-19T09:22:02;23.20;56.90
49373;DHT22;44113;38.408;-122.974;2022-08-19T09:24:31;23.20;56.80
49373;DHT22;44113;38.408;-122.974;2022-08-19T09:26:58;23.20;56.80
49373;DHT22;44113;38.408;-122.974;2022-08-19T09:29:25;23.20;56.70
49373;DHT22;44113;38.408;-122.974;2022-08-19T09:31:52;23.20;56.70
49373;DHT22;44113;38.408;-122.974;2022-08-19T09:34:19;23.20;56.60
49373;DHT22;44113;38.408;-122.974;2022-08-19T09:36:46;23.20;56.50
49373;DHT22;44113;38.408;-122.974;2022-08-19T09:39:19;23.10;56.40
49373;DHT22;44113;38.408;-122.974;2022-08-19T09:41:46;23.20;56.40
49373;DHT22;44113;38.408;-122.974;2022-08-19T09:44:13;23.20;56.40
49373;DHT22;44113;38.408;-122.974;2022-08-19T09:46:39;23.10;56.30
49373;DHT22;44113;38.408;-122.974;2022-08-19T09:49:06;23.10;56.40
49373;DHT22;44113;38.408;-122.974;2022-08-19T09:51:33;23.10;56.50
49373;DHT22;44113;38.408;-122.974;2022-08-19T09:54:02;23.10;56.60
49373;DHT22;44113;38.408;-122.974;2022-08-19T09:56:30;23.10;56.70
49373;DHT22;44113;38.408;-122.974;2022-08-19T09:58:59;23.10;56.60
49373;DHT22;44113;38.408;-122.974;2022-08-19T10:01:29;23.10;56.70
49373;DHT22;44113;38.408;-122.974;2022-08-19T10:03:57;23.10;56.70
49373;DHT22;44113;38.408;-122.974;2022-08-19T10:06:26;23.10;56.80
49373;DHT22;44113;38.408;-122.974;2022-08-19T10:08:55;23.10;56.60
49373;DHT22;44113;38.408;-122.974;2022-08-19T10:11:23;23.10;56.60
49373;DHT22;44113;38.408;-122.974;2022-08-19T10:13:49;23.10;56.60
49373;DHT22;44113;38.408;-122.974;2022-08-19T10:16:19;23.00;56.50
49373;DHT22;44113;38.408;-122.974;2022-08-19T10:18:49;23.00;56.50
49373;DHT22;44113;38.408;-122.974;2022-08-19T10:21:17;23.00;56.50
49373;DHT22;44113;38.408;-122.974;2022-08-19T10:23:47;23.00;56.60
49373;DHT22;44113;38.408;-122.974;2022-08-19T10:26:27;23.00;56.80
49373;DHT22;44113;38.408;-122.974;2022-08-19T10:28:55;23.00;56.80
49373;DHT22;44113;38.408;-122.974;2022-08-19T10:31:24;23.00;56.90
49373;DHT22;44113;38.408;-122.974;2022-08-19T10:33:52;23.00;56.90
49373;DHT22;44113;38.408;-122.974;2022-08-19T10:36:33;23.00;56.80
49373;DHT22;44113;38.408;-122.974;2022-08-19T10:39:04;23.00;56.80
49373;DHT22;44113;38.408;-122.974;2022-08-19T10:41:35;23.00;56.70
49373;DHT22;44113;38.408;-122.974;2022-08-19T10:44:06;23.00;56.70
49373;DHT22;44113;38.408;-122.974;2022-08-19T10:46:35;23.00;56.60
49373;DHT22;44113;38.408;-122.974;2022-08-19T10:49:04;23.00;56.70
49373;DHT22;44113;38.408;-122.974;2022-08-19T10:51:31;22.90;56.70
49373;DHT22;44113;38.408;-122.974;2022-08-19T10:54:17;22.90;56.70
49373;DHT22;44113;38.408;-122.974;2022-08-19T10:56:44;22.90;56.80
49373;DHT22;44113;38.408;-122.974;2022-08-19T10:59:28;22.80;56.90
49373;DHT22;44113;38.408;-122.974;2022-08-19T11:01:59;22.80;56.90
49373;DHT22;44113;38.408;-122.974;2022-08-19T11:04:26;22.80;56.90
49373;DHT22;44113;38.408;-122.974;2022-08-19T11:06:53;22.80;56.90
49373;DHT22;44113;38.408;-122.974;2022-08-19T11:09:22;22.80;56.80
49373;DHT22;44113;38.408;-122.974;2022-08-19T11:11:55;22.90;56.90
49373;DHT22;44113;38.408;-122.974;2022-08-19T11:14:23;22.90;56.70
49373;DHT22;44113;38.408;-122.974;2022-08-19T11:16:52;22.90;56.80
49373;DHT22;44113;38.408;-122.974;2022-08-19T11:19:22;22.90;56.80
49373;DHT22;44113;38.408;-122.974;2022-08-19T11:21:51;22.80;56.80
49373;DHT22;44113;38.408;-122.974;2022-08-19T11:24:20;22.80;56.80
49373;DHT22;44113;38.408;-122.974;2022-08-19T11:26:49;22.80;56.90
49373;DHT22;44113;38.408;-122.974;2022-08-19T11:29:20;22.70;56.90
49373;DHT22;44113;38.408;-122.974;2022-08-19T11:31:49;22.70;57.00
49373;DHT22;44113;38.408;-122.974;2022-08-19T11:34:20;22.70;57.00
49373;DHT22;44113;38.408;-122.974;2022-08-19T11:36:47;22.70;57.60
49373;DHT22;44113;38.408;-122.974;2022-08-19T11:39:17;22.70;57.00
49373;DHT22;44113;38.408;-122.974;2022-08-19T11:41:43;22.70;57.00
49373;DHT22;44113;38.408;-122.974;2022-08-19T11:44:10;22.80;57.00
49373;DHT22;44113;38.408;-122.974;2022-08-19T11:46:38;22.80;57.00
49373;DHT22;44113;38.408;-122.974;2022-08-19T11:49:06;22.70;56.90
49373;DHT22;44113;38.408;-122.974;2022-08-19T11:51:33;22.70;56.90
49373;DHT22;44113;38.408;-122.974;2022-08-19T11:54:00;22.70;57.00
49373;DHT22;44113;38.408;-122.974;2022-08-19T11:56:28;22.70;57.10
49373;DHT22;44113;38.408;-122.974;2022-08-19T11:58:55;22.70;57.10
49373;DHT22;44113;38.408;-122.974;2022-08-19T12:01:26;22.70;57.20
49373;DHT22;44113;38.408;-122.974;2022-08-19T12:03:54;22.60;57.30
49373;DHT22;44113;38.408;-122.974;2022-08-19T12:06:25;22.70;57.30
49373;DHT22;44113;38.408;-122.974;2022-08-19T12:08:55;22.60;57.30
49373;DHT22;44113;38.408;-122.974;2022-08-19T12:11:22;22.60;57.20
49373;DHT22;44113;38.408;-122.974;2022-08-19T12:13:49;22.60;57.20
49373;DHT22;44113;38.408;-122.974;2022-08-19T12:16:24;22.70;57.20
49373;DHT22;44113;38.408;-122.974;2022-08-19T12:18:51;22.70;57.10
49373;DHT22;44113;38.408;-122.974;2022-08-19T12:21:21;22.60;57.10
49373;DHT22;44113;38.408;-122.974;2022-08-19T12:23:55;22.60;57.20
49373;DHT22;44113;38.408;-122.974;2022-08-19T12:26:23;22.60;57.20
49373;DHT22;44113;38.408;-122.974;2022-08-19T12:28:50;22.60;57.40
49373;DHT22;44113;38.408;-122.974;2022-08-19T12:31:17;22.60;57.40
49373;DHT22;44113;38.408;-122.974;2022-08-19T12:33:46;22.50;57.40
49373;DHT22;44113;38.408;-122.974;2022-08-19T12:36:14;22.50;57.40
49373;DHT22;44113;38.408;-122.974;2022-08-19T12:38:42;22.50;57.50
49373;DHT22;44113;38.408;-122.974;2022-08-19T12:41:13;22.50;57.30
49373;DHT22;44113;38.408;-122.974;2022-08-19T12:43:41;22.50;57.30
49373;DHT22;44113;38.408;-122.974;2022-08-19T12:46:08;22.50;57.40
49373;DHT22;44113;38.408;-122.974;2022-08-19T12:48:35;22.50;57.30
49373;DHT22;44113;38.408;-122.974;2022-08-19T12:51:08;22.50;57.30
49373;DHT22;44113;38.408;-122.974;2022-08-19T12:53:35;22.50;57.40
49373;DHT22;44113;38.408;-122.974;2022-08-19T12:56:02;22.50;57.40
49373;DHT22;44113;38.408;-122.974;2022-08-19T12:58:29;22.50;57.40
49373;DHT22;44113;38.408;-122.974;2022-08-19T13:00:56;22.40;57.50
49373;DHT22;44113;38.408;-122.974;2022-08-19T13:03:23;22.40;57.60
49373;DHT22;44113;38.408;-122.974;2022-08-19T13:05:55;22.40;57.60
49373;DHT22;44113;38.408;-122.974;2022-08-19T13:08:22;22.40;57.70
49373;DHT22;44113;38.408;-122.974;2022-08-19T13:10:49;22.40;57.60
49373;DHT22;44113;38.408;-122.974;2022-08-19T13:13:16;22.40;57.60
49373;DHT22;44113;38.408;-122.974;2022-08-19T13:15:44;22.40;57.60
49373;DHT22;44113;38.408;-122.974;2022-08-19T13:18:11;22.40;57.50
49373;DHT22;44113;38.408;-122.974;2022-08-19T13:20:38;22.40;57.30
49373;DHT22;44113;38.408;-122.974;2022-08-19T13:23:09;22.40;57.40
49373;DHT22;44113;38.408;-122.974;2022-08-19T13:25:36;22.40;57.50
49373;DHT22;44113;38.408;-122.974;2022-08-19T13:28:03;22.40;57.60
49373;DHT22;44113;38.408;-122.974;2022-08-19T13:30:32;22.30;57.60
49373;DHT22;44113;38.408;-122.974;2022-08-19T13:33:17;22.40;57.80
49373;DHT22;44113;38.408;-122.974;2022-08-19T13:35:48;22.30;57.80
49373;DHT22;44113;38.408;-122.974;2022-08-19T13:38:18;22.30;57.80
49373;DHT22;44113;38.408;-122.974;2022-08-19T13:40:46;22.30;57.90
49373;DHT22;44113;38.408;-122.974;2022-08-19T13:43:14;22.30;57.80
49373;DHT22;44113;38.408;-122.974;2022-08-19T13:45:41;22.30;57.80
49373;DHT22;44113;38.408;-122.974;2022-08-19T13:48:08;22.30;57.70
49373;DHT22;44113;38.408;-122.974;2022-08-19T13:50:45;22.30;57.60
49373;DHT22;44113;38.408;-122.974;2022-08-19T13:53:13;22.30;57.50
49373;DHT22;44113;38.408;-122.974;2022-08-19T13:55:41;22.30;57.50
49373;DHT22;44113;38.408;-122.974;2022-08-19T13:58:09;22.30;57.60
49373;DHT22;44113;38.408;-122.974;2022-08-19T14:00:42;22.20;57.60
49373;DHT22;44113;38.408;-122.974;2022-08-19T14:03:10;22.20;57.80
49373;DHT22;44113;38.408;-122.974;2022-08-19T14:05:37;22.20;57.80
49373;DHT22;44113;38.408;-122.974;2022-08-19T14:08:05;22.20;58.00
49373;DHT22;44113;38.408;-122.974;2022-08-19T14:10:31;22.20;58.50
49373;DHT22;44113;38.408;-122.974;2022-08-19T14:13:01;22.20;58.00
49373;DHT22;44113;38.408;-122.974;2022-08-19T14:15:28;22.20;58.00
49373;DHT22;44113;38.408;-122.974;2022-08-19T14:17:56;22.20;57.80
49373;DHT22;44113;38.408;-122.974;2022-08-19T14:20:23;22.20;57.80
49373;DHT22;44113;38.408;-122.974;2022-08-19T14:22:50;22.20;57.80
49373;DHT22;44113;38.408;-122.974;2022-08-19T14:25:20;22.20;57.70
49373;DHT22;44113;38.408;-122.974;2022-08-19T14:27:48;22.20;57.70
49373;DHT22;44113;38.408;-122.974;2022-08-19T14:30:18;22.20;57.80
49373;DHT22;44113;38.408;-122.974;2022-08-19T14:32:45;22.20;58.00
49373;DHT22;44113;38.408;-122.974;2022-08-19T14:35:14;22.10;57.90
49373;DHT22;44113;38.408;-122.974;2022-08-19T14:37:42;22.10;58.10
49373;DHT22;44113;38.408;-122.974;2022-08-19T14:40:10;22.10;58.20
49373;DHT22;44113;38.408;-122.974;2022-08-19T14:42:37;22.00;58.10
49373;DHT22;44113;38.408;-122.974;2022-08-19T14:45:05;22.10;58.30
49373;DHT22;44113;38.408;-122.974;2022-08-19T14:47:32;22.10;58.10
49373;DHT22;44113;38.408;-122.974;2022-08-19T14:49:58;22.10;58.10
49373;DHT22;44113;38.408;-122.974;2022-08-19T14:52:25;22.10;58.10
49373;DHT22;44113;38.408;-122.974;2022-08-19T14:54:51;22.10;58.00
49373;DHT22;44113;38.408;-122.974;2022-08-19T14:57:19;22.10;58.00
49373;DHT22;44113;38.408;-122.974;2022-08-19T14:59:45;22.10;58.00
49373;DHT22;44113;38.408;-122.974;2022-08-19T15:02:12;22.10;58.20
49373;DHT22;44113;38.408;-122.974;2022-08-19T15:04:38;22.10;58.20
49373;DHT22;44113;38.408;-122.974;2022-08-19T15:07:05;22.00;58.30
49373;DHT22;44113;38.408;-122.974;2022-08-19T15:09:33;22.10;58.50
49373;DHT22;44113;38.408;-122.974;2022-08-19T15:12:00;22.00;58.60
49373;DHT22;44113;38.408;-122.974;2022-08-19T15:14:28;22.00;58.30
49373;DHT22;44113;38.408;-122.974;2022-08-19T15:17:02;22.00;59.10
49373;DHT22;44113;38.408;-122.974;2022-08-19T15:19:30;22.00;58.40
49373;DHT22;44113;38.408;-122.974;2022-08-19T15:21:58;22.00;58.40